Time;durP1;ratioP1;P1;durP2;ratioP2;P2;SDS_P1;SDS_P2;PMS_P1;PMS_P2;Temp;Humidity;BMP_temperature;BMP_pressure;BME280_temperature;BME280_humidity;BME280_pressure;Samples;Min_cycle;Max_cycle;Signal;HPM_P1;HPM_P2
2023/07/31 00:00:28;;;;;;;4.45;1.63;;;;;;;13.32;100.00;100639.69;4986299;28;20529;-43
2023/07/31 00:02:54;;;;;;;6.10;1.63;;;;;;;13.24;100.00;100639.19;4990203;28;20441;-42
2023/07/31 00:05:20;;;;;;;4.50;1.30;;;;;;;13.32;100.00;100625.38;4982611;28;20188;-43
2023/07/31 00:07:46;;;;;;;1.67;1.00;;;;;;;13.30;100.00;100619.19;4979626;28;20228;-43
2023/07/31 00:10:11;;;;;;;4.00;1.40;;;;;;;13.33;100.00;100624.41;4987727;28;20208;-43
2023/07/31 00:12:39;;;;;;;4.65;1.60;;;;;;;13.34;100.00;100610.88;4987699;28;20697;-44
2023/07/31 00:15:06;;;;;;;5.03;1.33;;;;;;;13.38;100.00;100598.13;4994384;28;20192;-43
2023/07/31 00:17:31;;;;;;;2.95;1.30;;;;;;;13.34;100.00;100597.44;4994577;28;20201;-45
2023/07/31 00:19:57;;;;;;;5.82;1.80;;;;;;;13.35;100.00;100587.53;4991854;28;20240;-42
2023/07/31 00:22:22;;;;;;;3.47;1.40;;;;;;;13.34;100.00;100602.81;4994989;28;20205;-44
2023/07/31 00:24:48;;;;;;;5.18;1.35;;;;;;;13.37;100.00;100607.16;4990934;28;20186;-44
2023/07/31 00:27:13;;;;;;;5.25;1.45;;;;;;;13.36;100.00;100600.06;4983575;28;20360;-44
2023/07/31 00:29:39;;;;;;;5.40;1.80;;;;;;;13.34;100.00;100602.81;4989238;28;20295;-45
2023/07/31 00:32:05;;;;;;;5.00;1.60;;;;;;;13.28;100.00;100588.78;4984294;28;20273;-43
2023/07/31 00:34:30;;;;;;;4.43;1.90;;;;;;;13.27;100.00;100590.63;4991203;28;20249;-43
2023/07/31 00:36:56;;;;;;;4.35;2.13;;;;;;;13.29;100.00;100595.91;4993918;28;20212;-43
2023/07/31 00:39:21;;;;;;;5.28;1.90;;;;;;;13.26;100.00;100582.63;4988940;28;20193;-45
2023/07/31 00:41:47;;;;;;;3.65;2.00;;;;;;;13.26;100.00;100593.38;4984910;28;20212;-44
2023/07/31 00:44:12;;;;;;;4.90;1.90;;;;;;;13.20;100.00;100592.72;4997448;28;20185;-45
2023/07/31 00:46:38;;;;;;;4.45;1.92;;;;;;;13.18;100.00;100596.47;4987786;28;20201;-43
2023/07/31 00:49:05;;;;;;;5.35;1.80;;;;;;;13.18;100.00;100591.97;4982746;28;20195;-44
2023/07/31 00:51:30;;;;;;;4.72;2.05;;;;;;;13.20;100.00;100592.72;4983252;28;20205;-44
2023/07/31 00:53:56;;;;;;;6.13;1.67;;;;;;;13.24;100.00;100595.28;4984601;28;20617;-43
2023/07/31 00:56:23;;;;;;;3.75;1.45;;;;;;;13.23;100.00;100580.06;4984081;28;20208;-44
2023/07/31 00:58:49;;;;;;;4.57;1.65;;;;;;;13.18;100.00;100580.31;4987167;28;20660;-44
2023/07/31 01:01:15;;;;;;;3.60;1.40;;;;;;;13.11;100.00;100568.16;4990575;28;20306;-44
2023/07/31 01:03:40;;;;;;;4.22;1.55;;;;;;;13.12;100.00;100568.09;4982284;28;20185;-44
2023/07/31 01:06:15;;;;;;;4.57;1.55;;;;;;;13.11;100.00;100560.09;4988105;28;20197;-44
2023/07/31 01:09:00;;;;;;;3.15;1.55;;;;;;;13.11;100.00;100558.25;4989008;28;20186;-43
2023/07/31 01:11:29;;;;;;;6.75;1.77;;;;;;;13.12;100.00;100562.69;4984205;28;20193;-45
2023/07/31 01:13:55;;;;;;;5.78;2.17;;;;;;;13.09;100.00;100562.84;4990263;28;20216;-43
2023/07/31 01:16:21;;;;;;;4.72;1.83;;;;;;;13.07;100.00;100566.56;4989085;28;20296;-45
2023/07/31 01:18:46;;;;;;;4.35;1.40;;;;;;;13.01;100.00;100559.72;4986639;28;20327;-43
2023/07/31 01:21:43;;;;;;;6.63;1.65;;;;;;;13.02;100.00;100557.88;4988416;28;20216;-42
2023/07/31 01:24:14;;;;;;;4.78;1.45;;;;;;;13.06;100.00;100557.63;4984165;28;20185;-45
2023/07/31 01:26:46;;;;;;;4.40;1.20;;;;;;;13.01;100.00;100548.97;4992012;28;20244;-44
2023/07/31 01:29:23;;;;;;;1.67;1.30;;;;;;;13.02;100.00;100539.06;4986933;28;20185;-45
2023/07/31 01:31:51;;;;;;;3.88;1.25;;;;;;;13.01;100.00;100543.56;4985885;28;20184;-43
2023/07/31 01:34:18;;;;;;;2.97;1.17;;;;;;;12.99;100.00;100546.34;4998481;28;20180;-43
2023/07/31 01:36:44;;;;;;;3.88;0.95;;;;;;;12.92;100.00;100535.97;4990861;28;20209;-45
2023/07/31 01:39:09;;;;;;;1.50;1.13;;;;;;;12.96;100.00;100524.09;4986189;28;20617;-44
2023/07/31 01:41:35;;;;;;;1.23;0.77;;;;;;;13.01;100.00;100531.94;4977844;28;20675;-44
2023/07/31 01:44:00;;;;;;;2.28;0.95;;;;;;;13.00;100.00;100528.38;4987939;28;20181;-44
2023/07/31 01:46:26;;;;;;;4.90;1.30;;;;;;;12.88;100.00;100527.22;4977107;28;20304;-45
2023/07/31 01:48:51;;;;;;;1.77;1.00;;;;;;;12.93;100.00;100526.97;4989140;28;20194;-43
2023/07/31 01:51:17;;;;;;;2.47;1.13;;;;;;;12.87;100.00;100521.91;4992423;28;20221;-46
2023/07/31 01:53:42;;;;;;;3.05;1.00;;;;;;;12.81;100.00;100519.53;4976275;28;20193;-44
2023/07/31 01:56:08;;;;;;;2.13;0.90;;;;;;;12.80;100.00;100518.69;4976813;28;20212;-43
2023/07/31 01:58:33;;;;;;;1.27;0.90;;;;;;;12.75;100.00;100510.84;4990721;28;20185;-43
2023/07/31 02:00:59;;;;;;;1.35;0.77;;;;;;;12.69;100.00;100513.84;4981092;28;20184;-44
2023/07/31 02:03:25;;;;;;;3.40;0.93;;;;;;;12.66;100.00;100510.44;4964865;28;20178;-43
2023/07/31 02:05:54;;;;;;;1.45;0.80;;;;;;;12.70;100.00;100499.50;4988657;28;20292;-42
2023/07/31 02:08:19;;;;;;;1.08;0.65;;;;;;;12.69;100.00;100503.09;4980820;28;20190;-43
2023/07/31 02:10:45;;;;;;;3.45;1.00;;;;;;;12.73;100.00;100498.44;4984777;28;20200;-44
2023/07/31 02:13:10;;;;;;;1.58;0.98;;;;;;;12.67;100.00;100506.81;4985059;28;20185;-44
2023/07/31 02:15:36;;;;;;;3.15;0.98;;;;;;;12.68;100.00;100498.69;4987597;28;20189;-45
2023/07/31 02:18:02;;;;;;;3.30;1.10;;;;;;;12.71;100.00;100484.22;4984595;28;20298;-45
2023/07/31 02:20:27;;;;;;;2.60;0.90;;;;;;;12.71;100.00;100481.53;4991078;28;20234;-43
2023/07/31 02:22:53;;;;;;;2.90;0.98;;;;;;;12.68;100.00;100485.25;4988750;28;20213;-43
2023/07/31 02:25:18;;;;;;;4.03;0.90;;;;;;;12.73;100.00;100485.88;4990996;28;20184;-44
2023/07/31 02:27:44;;;;;;;4.65;1.40;;;;;;;12.70;100.00;100485.16;4985467;28;20212;-43
2023/07/31 02:30:11;;;;;;;1.52;1.02;;;;;;;12.74;100.00;100484.91;4984732;28;20228;-43
2023/07/31 02:32:36;;;;;;;2.35;1.08;;;;;;;12.74;100.00;100476.84;4989800;28;20197;-44
2023/07/31 02:35:02;;;;;;;3.63;1.20;;;;;;;12.69;100.00;100481.59;4985752;28;20182;-44
2023/07/31 02:37:28;;;;;;;5.65;1.35;;;;;;;12.68;100.00;100471.81;4978737;28;20228;-44
2023/07/31 02:39:54;;;;;;;3.67;1.30;;;;;;;12.73;100.00;100479.63;4985444;28;20478;-45
2023/07/31 02:42:20;;;;;;;3.53;1.40;;;;;;;12.76;100.00;100479.47;4985414;28;20200;-43
2023/07/31 02:44:46;;;;;;;3.60;1.60;;;;;;;12.73;100.00;100468.88;4991210;28;20718;-45
2023/07/31 02:47:11;;;;;;;2.70;1.33;;;;;;;12.72;100.00;100472.50;4993640;28;20684;-43
2023/07/31 02:49:36;;;;;;;6.18;2.22;;;;;;;12.74;100.00;100481.34;4990470;28;20211;-44
2023/07/31 02:52:02;;;;;;;2.33;1.63;;;;;;;12.83;100.00;100477.31;4995886;28;20205;-45
2023/07/31 02:54:28;;;;;;;7.38;2.40;;;;;;;12.82;100.00;100475.59;4982626;28;20195;-45
2023/07/31 02:56:53;;;;;;;4.30;2.10;;;;;;;12.90;100.00;100473.34;4987715;28;20201;-44
2023/07/31 02:59:21;;;;;;;6.28;2.70;;;;;;;12.86;100.00;100469.09;4985884;28;20192;-45
2023/07/31 03:01:46;;;;;;;5.57;2.40;;;;;;;12.92;100.00;100471.44;4984522;28;20202;-43
2023/07/31 03:04:12;;;;;;;4.70;2.70;;;;;;;12.95;100.00;100469.47;4990440;28;20189;-44
2023/07/31 03:06:37;;;;;;;5.93;2.65;;;;;;;12.96;100.00;100463.13;4994177;28;20201;-44
2023/07/31 03:09:03;;;;;;;8.30;2.95;;;;;;;12.98;100.00;100468.44;4973947;28;20268;-45
2023/07/31 03:11:28;;;;;;;9.35;2.75;;;;;;;13.03;100.00;100474.44;4985013;28;20276;-45
2023/07/31 03:13:55;;;;;;;8.20;2.80;;;;;;;12.99;100.00;100467.50;4983691;28;20200;-46
2023/07/31 03:16:21;;;;;;;5.38;2.80;;;;;;;12.99;100.00;100464.81;4983021;28;20300;-46
2023/07/31 03:18:46;;;;;;;4.30;2.47;;;;;;;13.01;100.00;100473.66;4981311;28;20192;-44
2023/07/31 03:21:12;;;;;;;9.45;3.03;;;;;;;13.01;100.00;100459.31;4984079;28;20185;-44
2023/07/31 03:23:38;;;;;;;5.55;2.53;;;;;;;13.00;100.00;100453.06;4982393;28;20719;-46
2023/07/31 03:26:06;;;;;;;5.85;2.75;;;;;;;12.99;100.00;100444.16;4978566;28;20186;-44
2023/07/31 03:28:32;;;;;;;9.55;2.90;;;;;;;12.96;100.00;100448.81;4987807;28;20182;-45
2023/07/31 03:30:57;;;;;;;7.95;2.90;;;;;;;12.99;100.00;100457.59;4980897;28;20188;-44
2023/07/31 03:33:23;;;;;;;5.57;2.83;;;;;;;12.97;100.00;100454.13;4985168;28;20185;-44
2023/07/31 03:35:50;;;;;;;7.35;2.97;;;;;;;12.99;100.00;100446.84;4987569;28;20675;-44
2023/07/31 03:38:15;;;;;;;7.93;3.33;;;;;;;13.04;100.00;100440.34;4989998;28;20272;-43
2023/07/31 03:40:41;;;;;;;6.38;2.70;;;;;;;13.05;100.00;100448.31;4981089;28;20273;-43
2023/07/31 03:43:06;;;;;;;5.20;2.80;;;;;;;13.17;100.00;100444.09;4988165;28;20260;-44
2023/07/31 03:45:32;;;;;;;8.70;3.67;;;;;;;13.17;100.00;100446.78;4986498;28;20817;-45
2023/07/31 03:47:58;;;;;;;6.97;3.58;;;;;;;13.20;100.00;100446.59;4986898;28;20260;-44
2023/07/31 03:50:25;;;;;;;8.45;3.13;;;;;;;13.22;100.00;100443.84;4983727;28;20297;-43
2023/07/31 03:52:51;;;;;;;10.55;3.90;;;;;;;13.25;100.00;100449.03;4978499;28;20264;-45
2023/07/31 03:55:16;;;;;;;5.72;3.72;;;;;;;13.30;100.00;100452.38;4990219;28;20238;-44
2023/07/31 03:57:42;;;;;;;10.10;4.93;;;;;;;13.30;100.00;100444.31;4992631;28;20240;-45
2023/07/31 04:00:08;;;;;;;11.77;4.97;;;;;;;13.34;100.00;100437.81;4983099;28;20185;-43
2023/07/31 04:02:37;;;;;;;9.25;4.80;;;;;;;13.39;100.00;100447.34;4992031;28;20690;-45
2023/07/31 04:05:03;;;;;;;9.65;4.72;;;;;;;13.46;100.00;100447.00;4991491;28;20192;-44
2023/07/31 04:07:28;;;;;;;12.60;4.80;;;;;;;13.52;100.00;100452.91;4979359;28;20205;-45
2023/07/31 04:09:54;;;;;;;12.38;5.30;;;;;;;13.53;100.00;100435.78;4985172;28;20269;-46
2023/07/31 04:12:20;;;;;;;15.15;5.68;;;;;;;13.65;100.00;100438.75;4978183;28;20657;-46
2023/07/31 04:14:45;;;;;;;10.77;5.20;;;;;;;13.64;100.00;100442.41;4989193;28;20799;-46
2023/07/31 04:17:11;;;;;;;13.15;5.22;;;;;;;13.66;100.00;100445.88;4993523;28;20212;-43
2023/07/31 04:19:36;;;;;;;10.32;5.60;;;;;;;13.67;100.00;100442.25;4989320;28;20189;-45
2023/07/31 04:22:02;;;;;;;13.77;6.00;;;;;;;13.77;100.00;100433.53;4979307;28;20614;-43
2023/07/31 04:24:27;;;;;;;13.40;6.43;;;;;;;13.67;100.00;100435.03;4985383;28;20185;-44
2023/07/31 04:26:53;;;;;;;12.18;6.18;;;;;;;13.74;100.00;100425.63;4989013;28;20618;-45
2023/07/31 04:29:19;;;;;;;12.32;7.18;;;;;;;13.70;100.00;100439.34;4984505;28;20236;-44
2023/07/31 04:31:45;;;;;;;15.25;6.70;;;;;;;13.74;100.00;100432.84;4977757;28;20192;-44
2023/07/31 04:34:11;;;;;;;12.73;7.28;;;;;;;13.76;100.00;100436.31;4984396;28;20206;-47
2023/07/31 04:36:37;;;;;;;16.58;7.32;;;;;;;13.75;100.00;100434.56;4984807;28;20212;-46
2023/07/31 04:39:03;;;;;;;11.57;7.15;;;;;;;13.77;100.00;100429.97;4985609;28;20597;-43
2023/07/31 04:41:28;;;;;;;12.50;6.85;;;;;;;13.79;100.00;100425.34;4987409;28;20228;-44
2023/07/31 04:43:53;;;;;;;14.07;7.32;;;;;;;13.78;100.00;100431.72;4979755;28;20276;-46
2023/07/31 04:46:19;;;;;;;11.00;7.55;;;;;;;13.77;100.00;100432.66;4986373;28;20201;-44
2023/07/31 04:48:45;;;;;;;16.23;7.22;;;;;;;13.78;100.00;100429.03;4988494;28;20181;-44
2023/07/31 04:51:10;;;;;;;12.10;7.18;;;;;;;13.84;100.00;100439.44;4986575;28;20546;-44
2023/07/31 04:53:36;;;;;;;9.82;7.07;;;;;;;13.83;100.00;100434.13;4992682;28;20184;-43
2023/07/31 04:56:02;;;;;;;10.55;7.13;;;;;;;13.78;100.00;100432.56;4991768;28;20178;-45
2023/07/31 04:58:27;;;;;;;11.35;7.10;;;;;;;13.81;100.00;100440.47;4984430;28;20186;-44
2023/07/31 05:00:53;;;;;;;12.15;7.57;;;;;;;13.77;100.00;100435.34;4993307;28;20232;-44
2023/07/31 05:03:18;;;;;;;15.43;8.57;;;;;;;13.79;100.00;100423.53;4980344;28;20209;-44
2023/07/31 05:05:44;;;;;;;13.07;8.55;;;;;;;13.75;100.00;100418.41;4990216;28;20208;-44
2023/07/31 05:08:09;;;;;;;11.65;9.07;;;;;;;13.72;100.00;100430.22;4988880;28;20575;-44
2023/07/31 05:10:35;;;;;;;13.25;9.05;;;;;;;13.74;100.00;100436.41;5020000;22;20347;-46
2023/07/31 05:13:00;;;;;;;14.25;8.43;;;;;;;13.74;100.00;100432.84;5021915;28;20637;-45
2023/07/31 05:15:26;;;;;;;12.50;8.52;;;;;;;13.81;100.00;100434.22;5024453;28;20184;-46
2023/07/31 05:17:51;;;;;;;16.25;9.10;;;;;;;13.75;100.00;100424.69;5023654;28;20553;-47
2023/07/31 05:20:17;;;;;;;11.65;8.80;;;;;;;13.78;100.00;100424.50;5025268;28;20180;-46
2023/07/31 05:22:43;;;;;;;18.15;9.38;;;;;;;13.83;100.00;100426.91;5016209;28;20197;-46
2023/07/31 05:25:08;;;;;;;13.68;9.70;;;;;;;13.78;100.00;100427.19;5032784;28;20641;-45
2023/07/31 05:27:34;;;;;;;16.83;10.02;;;;;;;13.80;100.00;100419.91;5022964;28;20258;-46
2023/07/31 05:29:59;;;;;;;15.15;9.90;;;;;;;13.86;100.00;100423.19;5020686;28;20647;-45
2023/07/31 05:32:25;;;;;;;13.27;9.73;;;;;;;13.88;100.00;100415.88;5023456;28;20169;-47
2023/07/31 05:34:52;;;;;;;14.13;9.68;;;;;;;13.89;100.00;100425.72;5014678;28;20235;-46
2023/07/31 05:37:18;;;;;;;18.33;10.50;;;;;;;13.93;100.00;100414.66;5024605;28;20678;-45
2023/07/31 05:39:43;;;;;;;17.98;9.73;;;;;;;13.99;100.00;100408.91;5019417;28;20418;-45
2023/07/31 05:42:09;;;;;;;13.98;9.90;;;;;;;14.05;100.00;100407.66;5014831;28;20244;-47
2023/07/31 05:44:34;;;;;;;17.27;9.48;;;;;;;14.08;100.00;100398.53;5019076;28;20191;-45
2023/07/31 05:47:00;;;;;;;16.73;10.60;;;;;;;14.13;100.00;100410.78;5021098;28;20210;-45
2023/07/31 05:49:26;;;;;;;16.45;10.55;;;;;;;14.13;100.00;100410.78;5018676;28;20267;-46
2023/07/31 05:51:51;;;;;;;15.82;9.93;;;;;;;14.15;100.00;100414.25;5018135;28;20184;-46
2023/07/31 05:54:17;;;;;;;16.48;9.70;;;;;;;14.19;100.00;100402.34;5019837;28;20224;-46
2023/07/31 05:56:42;;;;;;;14.13;9.60;;;;;;;14.22;100.00;100395.88;5019873;28;20505;-45
2023/07/31 05:59:09;;;;;;;11.50;8.85;;;;;;;14.19;100.00;100396.06;5018209;28;20177;-46
2023/07/31 06:01:35;;;;;;;14.30;8.85;;;;;;;14.23;100.00;100394.91;5019467;28;20211;-45
2023/07/31 06:04:01;;;;;;;12.25;8.73;;;;;;;14.28;100.00;100387.44;5023708;28;20169;-45
2023/07/31 06:06:27;;;;;;;15.52;10.38;;;;;;;14.29;100.00;100397.25;5024904;28;20201;-46
2023/07/31 06:08:53;;;;;;;13.50;8.40;;;;;;;14.30;100.00;100388.22;5023724;28;20187;-46
2023/07/31 06:11:20;;;;;;;11.85;8.35;;;;;;;14.40;100.00;100378.59;5020979;28;20220;-45
2023/07/31 06:13:47;;;;;;;10.95;8.63;;;;;;;14.43;100.00;100383.81;5020750;28;20586;-47
2023/07/31 06:16:13;;;;;;;11.75;8.07;;;;;;;14.50;100.00;100378.91;5023330;28;20232;-45
2023/07/31 06:18:39;;;;;;;11.80;7.20;;;;;;;14.51;100.00;100391.41;5017569;28;20195;-46
2023/07/31 06:21:05;;;;;;;9.43;7.38;;;;;;;14.52;100.00;100389.56;5022393;28;20612;-45
2023/07/31 06:23:30;;;;;;;9.15;6.80;;;;;;;14.52;100.00;100382.38;5031840;28;20198;-46
2023/07/31 06:25:56;;;;;;;10.40;7.15;;;;;;;14.41;100.00;100388.41;5021832;28;20250;-46
2023/07/31 06:28:21;;;;;;;11.82;7.32;;;;;;;14.52;100.00;100376.09;5023300;28;20245;-47
2023/07/31 06:30:47;;;;;;;10.60;7.00;;;;;;;14.54;100.00;100377.75;5019535;28;20674;-46
2023/07/31 06:33:12;;;;;;;12.13;7.07;;;;;;;14.58;100.00;100378.44;5022327;28;20181;-45
2023/07/31 06:35:38;;;;;;;11.45;7.53;;;;;;;14.55;100.00;100374.13;5018340;28;20267;-45
2023/07/31 06:38:03;;;;;;;10.02;7.35;;;;;;;14.65;100.00;100377.13;5017526;28;20555;-47
2023/07/31 06:40:29;;;;;;;9.90;6.30;;;;;;;14.66;100.00;100368.06;5020739;28;20176;-46
2023/07/31 06:42:55;;;;;;;7.50;6.57;;;;;;;14.63;100.00;100366.41;5017233;28;20205;-47
2023/07/31 06:45:21;;;;;;;7.82;6.15;;;;;;;14.65;100.00;100363.63;5014914;28;20175;-45
2023/07/31 06:47:53;;;;;;;9.95;6.07;;;;;;;14.71;100.00;100371.31;5015490;28;20200;-47
2023/07/31 06:50:19;;;;;;;6.97;6.28;;;;;;;14.53;100.00;100375.16;5018995;28;20176;-45
2023/07/31 06:52:44;;;;;;;8.52;5.93;;;;;;;14.54;100.00;100371.47;5013918;28;20558;-47
2023/07/31 06:55:20;;;;;;;5.75;5.28;;;;;;;14.62;100.00;100369.19;5021030;28;20215;-47
2023/07/31 06:57:50;;;;;;;6.72;5.05;;;;;;;14.58;100.00;100375.75;5019159;28;20199;-47
2023/07/31 07:00:17;;;;;;;6.38;5.78;;;;;;;14.59;100.00;100372.09;5019560;28;20184;-47
2023/07/31 07:02:43;;;;;;;6.65;5.05;;;;;;;14.61;100.00;100367.50;5018288;28;20204;-47
2023/07/31 07:05:09;;;;;;;5.13;4.72;;;;;;;14.73;100.00;100368.53;5017977;28;20230;-45
2023/07/31 07:07:35;;;;;;;8.23;5.53;;;;;;;14.65;100.00;100373.53;5019478;28;20566;-45
2023/07/31 07:10:00;;;;;;;6.57;5.00;;;;;;;14.72;100.00;100374.91;5022978;28;20242;-46
2023/07/31 07:12:29;;;;;;;4.78;4.22;;;;;;;14.77;100.00;100365.53;5013417;28;20188;-44
2023/07/31 07:14:54;;;;;;;5.50;4.57;;;;;;;14.77;100.00;100364.69;5015515;28;20184;-45
2023/07/31 07:17:20;;;;;;;5.15;4.18;;;;;;;14.84;100.00;100366.88;5022336;28;20249;-45
2023/07/31 07:19:48;;;;;;;6.00;3.88;;;;;;;14.89;100.00;100373.81;5017140;28;20557;-46
2023/07/31 07:22:13;;;;;;;4.05;3.67;;;;;;;14.93;100.00;100375.34;5034559;28;20350;-45
2023/07/31 07:24:39;;;;;;;4.70;3.30;;;;;;;14.95;100.00;100365.34;5020475;28;20267;-45
2023/07/31 07:27:04;;;;;;;3.42;3.13;;;;;;;14.84;100.00;100371.41;5019111;28;20288;-45
2023/07/31 07:29:30;;;;;;;4.65;3.00;;;;;;;14.95;100.00;100370.75;5015518;28;20606;-45
2023/07/31 07:31:55;;;;;;;3.05;2.85;;;;;;;15.06;100.00;100361.97;5015414;28;20173;-45
2023/07/31 07:34:26;;;;;;;3.60;2.83;;;;;;;15.14;100.00;100355.09;5016083;28;20179;-45
2023/07/31 07:36:51;;;;;;;2.92;2.50;;;;;;;15.03;100.00;100350.41;5020181;28;20282;-45
2023/07/31 07:39:17;;;;;;;3.58;2.22;;;;;;;15.12;100.00;100354.31;5019701;28;20279;-47
2023/07/31 07:41:42;;;;;;;2.20;2.00;;;;;;;15.16;100.00;100353.16;5022374;28;20193;-46
2023/07/31 07:44:08;;;;;;;2.00;1.90;;;;;;;15.17;100.00;100349.50;5018553;28;20186;-45
2023/07/31 07:46:34;;;;;;;2.35;1.92;;;;;;;15.23;100.00;100340.13;5017760;28;20204;-46
2023/07/31 07:48:59;;;;;;;2.13;2.00;;;;;;;15.18;100.00;100353.94;5017817;28;20180;-45
2023/07/31 07:51:25;;;;;;;2.13;1.50;;;;;;;15.16;100.00;100345.06;5014433;28;20625;-45
2023/07/31 07:53:51;;;;;;;1.95;1.40;;;;;;;15.21;100.00;100342.06;5013271;28;20234;-45
2023/07/31 07:56:16;;;;;;;1.30;1.30;;;;;;;15.17;100.00;100335.13;5020439;28;20208;-47
2023/07/31 07:58:42;;;;;;;1.95;1.50;;;;;;;15.19;100.00;100341.31;5017077;28;20606;-48
2023/07/31 08:01:07;;;;;;;1.50;1.33;;;;;;;15.16;100.00;100345.06;5018485;28;20176;-45
2023/07/31 08:03:32;;;;;;;1.45;1.20;;;;;;;15.17;100.00;100335.13;5012291;28;20325;-46
2023/07/31 08:06:01;;;;;;;1.42;1.30;;;;;;;15.16;100.00;100336.13;5024018;28;20199;-45
2023/07/31 08:08:28;;;;;;;1.27;1.15;;;;;;;15.07;100.00;100334.88;5022539;28;20185;-46
2023/07/31 08:10:54;;;;;;;1.42;1.00;;;;;;;15.08;100.00;100342.00;5014746;28;20199;-45
2023/07/31 08:13:19;;;;;;;1.10;1.10;;;;;;;15.10;100.00;100331.97;5017702;28;20184;-45
2023/07/31 08:15:45;;;;;;;2.17;1.00;;;;;;;15.12;100.00;100323.78;5020361;28;20176;-47
2023/07/31 08:18:12;;;;;;;0.85;0.85;;;;;;;15.13;100.00;100321.00;5020160;28;20603;-45
2023/07/31 08:20:37;;;;;;;0.80;0.80;;;;;;;15.21;100.00;100315.94;5017261;28;20655;-45
2023/07/31 08:23:03;;;;;;;1.65;0.98;;;;;;;15.22;100.00;100315.00;5019648;28;20249;-45
2023/07/31 08:25:29;;;;;;;0.88;0.88;;;;;;;15.25;100.00;100316.63;5014541;28;20702;-45
2023/07/31 08:27:55;;;;;;;1.00;1.00;;;;;;;15.27;100.00;100314.69;5016615;28;20701;-45
2023/07/31 08:30:21;;;;;;;1.27;0.82;;;;;;;15.38;100.00;100300.47;5018422;28;20567;-44
2023/07/31 08:32:47;;;;;;;0.70;0.70;;;;;;;15.34;100.00;100302.50;5026945;28;20185;-45
2023/07/31 08:35:12;;;;;;;1.02;0.82;;;;;;;15.36;100.00;100314.06;5026211;28;20191;-48
2023/07/31 08:37:38;;;;;;;1.80;0.98;;;;;;;15.37;100.00;100313.13;5023715;28;20607;-45
2023/07/31 08:40:05;;;;;;;1.52;1.00;;;;;;;15.47;100.00;100310.66;5022127;28;20216;-45
2023/07/31 08:42:31;;;;;;;0.80;0.80;;;;;;;15.45;100.00;100313.44;5021724;28;20498;-46
2023/07/31 08:44:59;;;;;;;0.77;0.77;;;;;;;15.32;100.00;100308.97;5021251;28;20180;-45
2023/07/31 08:47:27;;;;;;;0.70;0.70;;;;;;;15.32;100.00;100312.53;5020012;28;20285;-45
2023/07/31 08:49:55;;;;;;;1.10;0.98;;;;;;;15.35;100.00;100306.94;5028895;28;20184;-45
2023/07/31 08:52:21;;;;;;;0.98;0.95;;;;;;;15.39;100.00;100313.88;5018329;28;20187;-45
2023/07/31 08:54:46;;;;;;;1.23;0.93;;;;;;;15.43;100.00;100303.72;5023702;28;20195;-45
2023/07/31 08:57:12;;;;;;;1.45;0.90;;;;;;;15.58;100.00;100308.09;5025410;28;20192;-46
2023/07/31 08:59:39;;;;;;;1.48;0.90;;;;;;;15.51;100.00;100309.47;5022054;28;20192;-47
2023/07/31 09:02:08;;;;;;;1.60;1.10;;;;;;;15.71;100.00;100310.88;5022796;28;20553;-45
2023/07/31 09:04:34;;;;;;;1.73;1.10;;;;;;;15.81;100.00;100308.41;5024855;28;20176;-47
2023/07/31 09:07:03;;;;;;;1.15;1.00;;;;;;;15.73;100.00;100299.97;5020028;28;20207;-46
2023/07/31 09:09:31;;;;;;;0.80;0.80;;;;;;;15.75;100.00;100304.28;5019869;28;20605;-45
2023/07/31 09:11:58;;;;;;;3.72;1.67;;;;;;;15.72;100.00;100301.81;5018296;28;20188;-45
2023/07/31 09:14:25;;;;;;;1.30;1.30;;;;;;;15.67;100.00;100290.41;5023477;28;20555;-45
2023/07/31 09:16:52;;;;;;;1.20;1.13;;;;;;;15.54;100.00;100297.59;5027551;28;20208;-45
2023/07/31 09:19:43;;;;;;;1.65;0.98;;;;;;;15.55;100.00;100296.66;5025058;28;20549;-45
2023/07/31 09:22:08;;;;;;;1.27;1.17;;;;;;;15.48;100.00;100290.81;5020237;28;20208;-46
2023/07/31 09:24:35;;;;;;;1.60;1.00;;;;;;;15.50;100.00;100285.28;5017943;28;20266;-44
2023/07/31 09:27:01;;;;;;;1.27;1.10;;;;;;;15.53;100.00;100288.66;5018945;28;20204;-45
2023/07/31 09:29:29;;;;;;;1.75;1.38;;;;;;;15.62;100.00;100287.16;5022180;28;20226;-46
2023/07/31 09:31:55;;;;;;;2.88;1.20;;;;;;;15.56;100.00;100283.03;5022761;28;20183;-45
2023/07/31 09:34:29;;;;;;;1.13;1.05;;;;;;;15.50;100.00;100264.53;5019955;28;20200;-44
2023/07/31 09:36:54;;;;;;;1.92;1.20;;;;;;;15.39;100.00;100267.09;5017030;28;20242;-46
2023/07/31 09:39:20;;;;;;;1.50;1.33;;;;;;;15.51;100.00;100260.03;5022409;28;20185;-47
2023/07/31 09:41:48;;;;;;;3.00;1.25;;;;;;;15.35;100.00;100257.47;5021120;28;20200;-45
2023/07/31 09:44:13;;;;;;;2.22;1.20;;;;;;;15.40;100.00;100252.66;5019180;28;20207;-46
2023/07/31 09:46:39;;;;;;;1.30;1.10;;;;;;;15.52;100.00;100249.09;5024142;28;20593;-49
2023/07/31 09:49:12;;;;;;;2.47;1.30;;;;;;;15.49;100.00;100251.16;5020209;28;20229;-50
2023/07/31 09:51:42;;;;;;;3.33;1.95;;;;;;;15.72;100.00;100250.50;5018101;28;20659;-45
2023/07/31 09:54:15;;;;;;;3.22;1.42;;;;;;;15.63;100.00;100254.66;5023825;28;20225;-46
2023/07/31 09:56:46;;;;;;;2.15;1.30;;;;;;;15.60;100.00;100256.69;5021246;28;20298;-45
2023/07/31 09:59:14;;;;;;;1.50;1.40;;;;;;;15.45;100.00;100269.41;5020553;28;20678;-47
2023/07/31 10:01:41;;;;;;;1.58;1.20;;;;;;;15.44;100.00;100270.38;5018798;28;20300;-46
2023/07/31 10:04:09;;;;;;;1.80;1.20;;;;;;;15.43;100.00;100274.88;5016981;28;20160;-46
2023/07/31 10:06:36;;;;;;;1.92;1.40;;;;;;;15.57;100.00;100278.53;5022088;28;20208;-46
2023/07/31 10:09:09;;;;;;;4.07;1.42;;;;;;;15.60;100.00;100271.06;5022886;28;20179;-46
2023/07/31 10:12:05;;;;;;;3.45;1.27;;;;;;;15.68;100.00;100278.66;5024832;28;20220;-48
2023/07/31 10:14:31;;;;;;;2.50;1.40;;;;;;;15.70;100.00;100273.13;5018389;28;20215;-48
2023/07/31 10:16:58;;;;;;;2.83;1.50;;;;;;;15.63;100.00;100260.06;5023411;28;20550;-47
2023/07/31 10:19:26;;;;;;;2.20;1.50;;;;;;;15.50;100.00;100260.97;5019160;28;20189;-47
2023/07/31 10:21:52;;;;;;;1.73;1.60;;;;;;;15.43;100.00;100264.09;5014142;28;20299;-46
2023/07/31 10:24:18;;;;;;;1.75;1.65;;;;;;;15.38;100.00;100270.78;5018344;28;20616;-45
2023/07/31 10:26:46;;;;;;;2.55;1.50;;;;;;;15.38;100.00;100281.59;5033720;28;20714;-47
2023/07/31 10:29:12;;;;;;;1.60;1.50;;;;;;;15.41;100.00;100275.97;5019768;28;20520;-45
2023/07/31 10:31:38;;;;;;;3.22;1.73;;;;;;;15.42;100.00;100286.66;5017303;28;20188;-46
2023/07/31 10:34:04;;;;;;;3.10;2.20;;;;;;;15.39;100.00;100284.19;5016697;28;20169;-47
2023/07/31 10:36:30;;;;;;;3.63;1.98;;;;;;;15.40;100.00;100277.81;5023793;28;20827;-47
2023/07/31 10:38:56;;;;;;;2.75;1.90;;;;;;;15.53;100.00;100283.25;5021651;28;20255;-49
2023/07/31 10:41:31;;;;;;;2.55;1.77;;;;;;;15.62;100.00;100284.47;5018197;28;20184;-46
2023/07/31 10:43:59;;;;;;;3.78;2.10;;;;;;;15.57;100.00;100289.31;5018269;28;20192;-45
2023/07/31 10:46:24;;;;;;;1.92;1.77;;;;;;;15.42;100.00;100281.28;5021705;28;20196;-47
2023/07/31 10:49:01;;;;;;;1.92;1.83;;;;;;;15.52;100.00;100270.69;5019610;28;20187;-48
2023/07/31 10:51:36;;;;;;;2.22;1.80;;;;;;;15.66;100.00;100267.94;5020258;28;20403;-46
2023/07/31 10:54:15;;;;;;;1.88;1.73;;;;;;;15.73;100.00;100256.75;5021357;28;20545;-44
2023/07/31 10:56:46;;;;;;;1.90;1.80;;;;;;;15.66;100.00;100261.69;5018365;28;20203;-46
2023/07/31 10:59:13;;;;;;;2.53;2.20;;;;;;;15.74;100.00;100253.06;5020633;28;20841;-48
2023/07/31 11:01:57;;;;;;;1.85;1.75;;;;;;;15.75;100.00;100262.91;5017936;28;20205;-45
2023/07/31 11:04:27;;;;;;;3.53;2.22;;;;;;;15.77;100.00;100255.56;5023293;28;20223;-45
2023/07/31 11:07:00;;;;;;;3.20;2.20;;;;;;;15.85;100.00;100253.19;5023037;28;20257;-45
2023/07/31 11:09:33;;;;;;;2.22;2.00;;;;;;;15.89;100.00;100248.44;5023231;28;20620;-46
2023/07/31 11:11:59;;;;;;;3.28;2.05;;;;;;;16.05;100.00;100254.53;5016583;28;20199;-46